Dukedom, TN (38226)

08:49 CDT le 22 octobre 2014 (GMT -0500)
KTNDUKED2 | Change Station
CLOSE
Current Station
Stations météorologiques personnelles
Location: Dukedom, TN
Altitude: 486 ft
Stations météo à proximité

Alt. 486 ft 36.49 °N, 88.72 °W | Updated 20 minutes ago

Ciel dégagé
Ciel dégagé
47.2 ° F
Paraît 47 ° F
N
0.0
Vent Variable Vent de NNE
Gusts 6.0 mph

Aujourd'hui
Haut(e) -- | Bas -- ° F
--% Risque de précip.
Hier
Haut(e) -- | Bas -- ° F
Precip. -- pouce
7:08 AM 6:09 PM
Lune descendante, 2% visible
Pression 30.26 pouce
Visibilité 10.0 Miles terrestres
Nuages Ciel dégagé
Refroidissement éolien 47 ° F
Point de rosée 46 ° F
Humidité 94%
Précipitations 0.00 pouce
Profondeur de la couche neigeuse Non disponible.
UV 15.4 sur 12
Pollen 2.00 sur 12
Qualité de l'air Non disponible.
Flu Activity Sporadic
METAR KUCY 221335Z AUTO 03005KT 10SM CLR 07/06 A3026 RMK

More Conditions Fewer Conditions

Pression 30.26 pouce
Visibilité 10.0 Miles terrestres
Nuages Ciel dégagé
Refroidissement éolien 47 ° F
Point de rosée 46 ° F
Humidité 94%
Précipitations 0.00 pouce
Profondeur de la couche neigeuse Non disponible.
UV 15.4 sur 12
Pollen 2.00 sur 12
Qualité de l'air Non disponible.
Flu Activity Sporadic
METAR KUCY 221335Z AUTO 03005KT 10SM CLR 07/06 A3026 RMK

More Conditions Fewer Conditions

10-Day Weather Forecast

Almanac

Astronomie

Oct. 22, 2014 Lever Coucher
Temps réel 07:08 CDT 18:09 CDT
Crépuscule civil 06:42 CDT 18:35 CDT
Crépuscule nautique 06:11 CDT 19:05 CDT
Crépuscule astronomique 05:42 CDT 19:35 CDT
Lune 05:51 CDT 17:34 CDT
Durée de lumière visible 11h 53m
Longueur du jour
11h 01m
Tomorrow will be 2m 11s shorter.
Lune descendante, 2% of the Moon is Illuminated
Aujourd'hui
Lune descendante
Oct 23
Nouveau
Oct 30
Premier quartier
Nov 6
Pleine lune
Nov 14
Dernier quartier

Extrêmes aujourd'hui

State Highs State Lows

Community

WunderPhotos

Upload Photos

1,763,919 Photos téléchargées !

Nearby

Épaisseur de neige

Station Depth Altitude
Pas de nouvelles chutes de neige

Activité sismique

Ville Distance Mag. Time & Date
No recent earthquake activity has been reported nearby.
Minimum magnitude displayed is 2.5.

Températures des eaux côtières

Lieu Température
Aucun rapport de station

Stations météo à proximité